sensor_id;sensor_type;location;lat;lon;timestamp;P1;durP1;ratioP1;P2;durP2;ratioP2
34988;SDS011;21192;40.182;44.516;2023-04-24T00:00:12;12.73;;;5.13;;
34988;SDS011;21192;40.182;44.516;2023-04-24T00:02:39;12.45;;;4.80;;
34988;SDS011;21192;40.182;44.516;2023-04-24T00:05:06;12.35;;;4.72;;
34988;SDS011;21192;40.182;44.516;2023-04-24T00:07:33;13.70;;;5.07;;
34988;SDS011;21192;40.182;44.516;2023-04-24T00:10:00;13.95;;;4.70;;
34988;SDS011;21192;40.182;44.516;2023-04-24T00:12:26;13.80;;;4.80;;
34988;SDS011;21192;40.182;44.516;2023-04-24T00:14:52;11.10;;;5.50;;
34988;SDS011;21192;40.182;44.516;2023-04-24T00:17:18;16.30;;;5.68;;
34988;SDS011;21192;40.182;44.516;2023-04-24T00:19:48;18.92;;;5.97;;
34988;SDS011;21192;40.182;44.516;2023-04-24T00:22:16;14.65;;;5.55;;
34988;SDS011;21192;40.182;44.516;2023-04-24T00:24:42;18.02;;;6.30;;
34988;SDS011;21192;40.182;44.516;2023-04-24T00:27:08;17.38;;;5.47;;
34988;SDS011;21192;40.182;44.516;2023-04-24T00:29:34;13.25;;;5.18;;
34988;SDS011;21192;40.182;44.516;2023-04-24T00:32:00;14.70;;;4.95;;
34988;SDS011;21192;40.182;44.516;2023-04-24T00:34:26;14.18;;;4.75;;
34988;SDS011;21192;40.182;44.516;2023-04-24T00:36:52;14.45;;;5.35;;
34988;SDS011;21192;40.182;44.516;2023-04-24T00:39:20;16.63;;;4.78;;
34988;SDS011;21192;40.182;44.516;2023-04-24T00:41:47;12.30;;;5.22;;
34988;SDS011;21192;40.182;44.516;2023-04-24T00:44:14;12.23;;;4.40;;
34988;SDS011;21192;40.182;44.516;2023-04-24T00:46:40;13.05;;;4.50;;
34988;SDS011;21192;40.182;44.516;2023-04-24T00:49:07;13.15;;;4.65;;
34988;SDS011;21192;40.182;44.516;2023-04-24T00:51:33;9.63;;;4.03;;
34988;SDS011;21192;40.182;44.516;2023-04-24T00:53:59;18.95;;;5.15;;
34988;SDS011;21192;40.182;44.516;2023-04-24T00:56:26;15.15;;;5.00;;
34988;SDS011;21192;40.182;44.516;2023-04-24T00:58:52;14.10;;;4.90;;
34988;SDS011;21192;40.182;44.516;2023-04-24T01:01:19;13.90;;;4.55;;
34988;SDS011;21192;40.182;44.516;2023-04-24T01:03:46;15.48;;;5.95;;
34988;SDS011;21192;40.182;44.516;2023-04-24T01:06:12;17.85;;;5.63;;
34988;SDS011;21192;40.182;44.516;2023-04-24T01:08:39;14.98;;;5.57;;
34988;SDS011;21192;40.182;44.516;2023-04-24T01:11:05;14.48;;;5.30;;
34988;SDS011;21192;40.182;44.516;2023-04-24T01:13:32;14.40;;;6.00;;
34988;SDS011;21192;40.182;44.516;2023-04-24T01:15:58;18.40;;;5.57;;
34988;SDS011;21192;40.182;44.516;2023-04-24T01:18:25;17.25;;;6.90;;
34988;SDS011;21192;40.182;44.516;2023-04-24T01:20:53;14.63;;;6.70;;
34988;SDS011;21192;40.182;44.516;2023-04-24T01:23:21;18.10;;;8.02;;
34988;SDS011;21192;40.182;44.516;2023-04-24T01:25:48;18.33;;;7.22;;
34988;SDS011;21192;40.182;44.516;2023-04-24T01:28:15;15.50;;;6.93;;
34988;SDS011;21192;40.182;44.516;2023-04-24T01:30:42;16.10;;;7.50;;
34988;SDS011;21192;40.182;44.516;2023-04-24T01:33:08;15.35;;;7.28;;
34988;SDS011;21192;40.182;44.516;2023-04-24T01:35:34;16.98;;;8.40;;
34988;SDS011;21192;40.182;44.516;2023-04-24T01:38:01;17.25;;;8.20;;
34988;SDS011;21192;40.182;44.516;2023-04-24T01:40:27;22.42;;;9.07;;
34988;SDS011;21192;40.182;44.516;2023-04-24T01:42:53;17.65;;;8.50;;
34988;SDS011;21192;40.182;44.516;2023-04-24T01:45:19;19.15;;;8.13;;
34988;SDS011;21192;40.182;44.516;2023-04-24T01:47:45;22.48;;;8.45;;
34988;SDS011;21192;40.182;44.516;2023-04-24T01:50:13;17.48;;;8.10;;
34988;SDS011;21192;40.182;44.516;2023-04-24T01:52:39;21.65;;;8.20;;
34988;SDS011;21192;40.182;44.516;2023-04-24T01:55:05;17.25;;;7.75;;
34988;SDS011;21192;40.182;44.516;2023-04-24T01:57:32;13.02;;;7.15;;
34988;SDS011;21192;40.182;44.516;2023-04-24T01:59:58;14.95;;;8.07;;
34988;SDS011;21192;40.182;44.516;2023-04-24T02:02:25;19.48;;;8.35;;
34988;SDS011;21192;40.182;44.516;2023-04-24T02:04:53;19.52;;;8.40;;
34988;SDS011;21192;40.182;44.516;2023-04-24T02:07:19;21.13;;;8.00;;
34988;SDS011;21192;40.182;44.516;2023-04-24T02:09:45;18.63;;;7.35;;
34988;SDS011;21192;40.182;44.516;2023-04-24T02:12:11;19.08;;;7.30;;
34988;SDS011;21192;40.182;44.516;2023-04-24T02:14:37;16.05;;;7.07;;
34988;SDS011;21192;40.182;44.516;2023-04-24T02:17:02;18.15;;;7.10;;
34988;SDS011;21192;40.182;44.516;2023-04-24T02:19:28;14.45;;;7.40;;
34988;SDS011;21192;40.182;44.516;2023-04-24T02:21:54;15.02;;;7.18;;
34988;SDS011;21192;40.182;44.516;2023-04-24T02:24:20;18.75;;;7.25;;
34988;SDS011;21192;40.182;44.516;2023-04-24T02:26:46;20.52;;;7.85;;
34988;SDS011;21192;40.182;44.516;2023-04-24T02:29:11;22.73;;;10.20;;
34988;SDS011;21192;40.182;44.516;2023-04-24T02:31:37;18.42;;;9.38;;
34988;SDS011;21192;40.182;44.516;2023-04-24T02:34:03;25.92;;;10.77;;
34988;SDS011;21192;40.182;44.516;2023-04-24T02:36:29;19.25;;;9.75;;
34988;SDS011;21192;40.182;44.516;2023-04-24T02:38:55;20.02;;;10.57;;
34988;SDS011;21192;40.182;44.516;2023-04-24T02:41:21;18.40;;;10.25;;
34988;SDS011;21192;40.182;44.516;2023-04-24T02:43:47;19.75;;;10.43;;
34988;SDS011;21192;40.182;44.516;2023-04-24T02:46:13;21.30;;;10.50;;
34988;SDS011;21192;40.182;44.516;2023-04-24T02:48:39;20.00;;;8.32;;
34988;SDS011;21192;40.182;44.516;2023-04-24T02:51:04;20.85;;;8.20;;
34988;SDS011;21192;40.182;44.516;2023-04-24T02:53:31;19.02;;;9.43;;
34988;SDS011;21192;40.182;44.516;2023-04-24T02:55:57;22.08;;;10.60;;
34988;SDS011;21192;40.182;44.516;2023-04-24T02:58:23;23.58;;;9.95;;
34988;SDS011;21192;40.182;44.516;2023-04-24T03:00:53;16.75;;;9.43;;
34988;SDS011;21192;40.182;44.516;2023-04-24T03:03:20;22.23;;;8.40;;
34988;SDS011;21192;40.182;44.516;2023-04-24T03:05:46;21.23;;;9.82;;
34988;SDS011;21192;40.182;44.516;2023-04-24T03:08:12;26.02;;;8.50;;
34988;SDS011;21192;40.182;44.516;2023-04-24T03:10:39;18.15;;;8.10;;
34988;SDS011;21192;40.182;44.516;2023-04-24T03:13:05;22.10;;;9.07;;
34988;SDS011;21192;40.182;44.516;2023-04-24T03:15:31;24.73;;;8.02;;
34988;SDS011;21192;40.182;44.516;2023-04-24T03:17:57;19.95;;;7.68;;
34988;SDS011;21192;40.182;44.516;2023-04-24T03:20:23;15.85;;;7.35;;
34988;SDS011;21192;40.182;44.516;2023-04-24T03:22:48;17.75;;;6.57;;
34988;SDS011;21192;40.182;44.516;2023-04-24T03:25:14;19.38;;;6.38;;
34988;SDS011;21192;40.182;44.516;2023-04-24T03:27:40;20.77;;;6.95;;
34988;SDS011;21192;40.182;44.516;2023-04-24T03:30:07;14.90;;;6.32;;
34988;SDS011;21192;40.182;44.516;2023-04-24T03:32:33;16.60;;;6.63;;
34988;SDS011;21192;40.182;44.516;2023-04-24T03:34:59;20.38;;;7.40;;
34988;SDS011;21192;40.182;44.516;2023-04-24T03:37:25;18.55;;;8.38;;
34988;SDS011;21192;40.182;44.516;2023-04-24T03:39:51;16.55;;;7.68;;
34988;SDS011;21192;40.182;44.516;2023-04-24T03:42:17;21.40;;;8.32;;
34988;SDS011;21192;40.182;44.516;2023-04-24T03:44:43;18.48;;;8.60;;
34988;SDS011;21192;40.182;44.516;2023-04-24T03:47:09;17.50;;;6.88;;
34988;SDS011;21192;40.182;44.516;2023-04-24T03:49:35;17.35;;;7.43;;
34988;SDS011;21192;40.182;44.516;2023-04-24T03:52:01;20.30;;;8.10;;
34988;SDS011;21192;40.182;44.516;2023-04-24T03:54:27;15.43;;;6.50;;
34988;SDS011;21192;40.182;44.516;2023-04-24T03:56:53;19.92;;;7.03;;
34988;SDS011;21192;40.182;44.516;2023-04-24T03:59:19;17.27;;;7.47;;
34988;SDS011;21192;40.182;44.516;2023-04-24T04:01:45;14.88;;;6.03;;
34988;SDS011;21192;40.182;44.516;2023-04-24T04:04:11;12.80;;;5.88;;
34988;SDS011;21192;40.182;44.516;2023-04-24T04:06:37;23.73;;;7.07;;
34988;SDS011;21192;40.182;44.516;2023-04-24T04:09:03;18.25;;;6.75;;
34988;SDS011;21192;40.182;44.516;2023-04-24T04:11:29;15.15;;;4.80;;
34988;SDS011;21192;40.182;44.516;2023-04-24T04:13:55;15.80;;;4.60;;
34988;SDS011;21192;40.182;44.516;2023-04-24T04:16:22;16.25;;;4.82;;
34988;SDS011;21192;40.182;44.516;2023-04-24T04:18:48;11.82;;;4.13;;
34988;SDS011;21192;40.182;44.516;2023-04-24T04:21:14;12.35;;;3.85;;
34988;SDS011;21192;40.182;44.516;2023-04-24T04:23:40;12.95;;;4.50;;
34988;SDS011;21192;40.182;44.516;2023-04-24T04:26:06;14.70;;;3.97;;
34988;SDS011;21192;40.182;44.516;2023-04-24T04:28:33;16.63;;;4.13;;
34988;SDS011;21192;40.182;44.516;2023-04-24T04:30:59;14.93;;;3.50;;
34988;SDS011;21192;40.182;44.516;2023-04-24T04:33:26;12.32;;;3.67;;
34988;SDS011;21192;40.182;44.516;2023-04-24T04:35:52;16.77;;;3.13;;
34988;SDS011;21192;40.182;44.516;2023-04-24T04:38:19;12.27;;;3.28;;
34988;SDS011;21192;40.182;44.516;2023-04-24T04:40:45;14.27;;;3.95;;
34988;SDS011;21192;40.182;44.516;2023-04-24T04:43:11;13.00;;;3.90;;
34988;SDS011;21192;40.182;44.516;2023-04-24T04:45:41;15.68;;;4.28;;
34988;SDS011;21192;40.182;44.516;2023-04-24T04:48:08;13.75;;;3.70;;
34988;SDS011;21192;40.182;44.516;2023-04-24T04:50:34;16.10;;;3.88;;
34988;SDS011;21192;40.182;44.516;2023-04-24T04:53:01;9.65;;;3.50;;
34988;SDS011;21192;40.182;44.516;2023-04-24T04:55:26;10.00;;;4.10;;
34988;SDS011;21192;40.182;44.516;2023-04-24T04:57:52;14.60;;;4.25;;
34988;SDS011;21192;40.182;44.516;2023-04-24T05:00:18;10.80;;;4.10;;
34988;SDS011;21192;40.182;44.516;2023-04-24T05:02:44;17.00;;;3.97;;
34988;SDS011;21192;40.182;44.516;2023-04-24T05:05:10;17.15;;;4.75;;
34988;SDS011;21192;40.182;44.516;2023-04-24T05:07:36;15.18;;;4.07;;
34988;SDS011;21192;40.182;44.516;2023-04-24T05:10:02;21.70;;;5.50;;
34988;SDS011;21192;40.182;44.516;2023-04-24T05:12:28;20.85;;;5.60;;
34988;SDS011;21192;40.182;44.516;2023-04-24T05:14:54;18.25;;;6.03;;
34988;SDS011;21192;40.182;44.516;2023-04-24T05:17:20;18.25;;;6.53;;
34988;SDS011;21192;40.182;44.516;2023-04-24T05:19:46;17.52;;;6.22;;
34988;SDS011;21192;40.182;44.516;2023-04-24T05:22:13;15.63;;;6.20;;
34988;SDS011;21192;40.182;44.516;2023-04-24T05:24:39;18.23;;;5.85;;
34988;SDS011;21192;40.182;44.516;2023-04-24T05:27:04;18.80;;;7.45;;
34988;SDS011;21192;40.182;44.516;2023-04-24T05:29:31;15.85;;;6.07;;
34988;SDS011;21192;40.182;44.516;2023-04-24T05:31:58;14.85;;;7.30;;
34988;SDS011;21192;40.182;44.516;2023-04-24T05:34:24;17.75;;;7.38;;
34988;SDS011;21192;40.182;44.516;2023-04-24T05:36:50;21.67;;;8.73;;
34988;SDS011;21192;40.182;44.516;2023-04-24T05:39:16;18.63;;;7.80;;
34988;SDS011;21192;40.182;44.516;2023-04-24T05:41:43;21.73;;;8.18;;
34988;SDS011;21192;40.182;44.516;2023-04-24T05:44:09;22.75;;;7.75;;
34988;SDS011;21192;40.182;44.516;2023-04-24T05:46:34;13.48;;;6.25;;
34988;SDS011;21192;40.182;44.516;2023-04-24T05:49:01;16.95;;;7.15;;
34988;SDS011;21192;40.182;44.516;2023-04-24T05:51:27;20.13;;;7.03;;
34988;SDS011;21192;40.182;44.516;2023-04-24T05:53:53;18.17;;;7.50;;
34988;SDS011;21192;40.182;44.516;2023-04-24T05:56:19;17.77;;;7.93;;
34988;SDS011;21192;40.182;44.516;2023-04-24T05:58:45;18.55;;;8.20;;
34988;SDS011;21192;40.182;44.516;2023-04-24T06:01:12;15.15;;;8.77;;
34988;SDS011;21192;40.182;44.516;2023-04-24T06:03:40;21.42;;;9.77;;
34988;SDS011;21192;40.182;44.516;2023-04-24T06:06:06;21.00;;;10.15;;
34988;SDS011;21192;40.182;44.516;2023-04-24T06:08:33;25.02;;;11.18;;
34988;SDS011;21192;40.182;44.516;2023-04-24T06:10:59;19.92;;;10.63;;
34988;SDS011;21192;40.182;44.516;2023-04-24T06:13:26;17.63;;;10.25;;
34988;SDS011;21192;40.182;44.516;2023-04-24T06:15:52;19.77;;;10.68;;
34988;SDS011;21192;40.182;44.516;2023-04-24T06:18:18;18.25;;;10.77;;
34988;SDS011;21192;40.182;44.516;2023-04-24T06:20:45;19.67;;;10.57;;
34988;SDS011;21192;40.182;44.516;2023-04-24T06:23:11;17.35;;;10.20;;
34988;SDS011;21192;40.182;44.516;2023-04-24T06:25:37;16.30;;;9.50;;
34988;SDS011;21192;40.182;44.516;2023-04-24T06:28:03;17.15;;;8.98;;
34988;SDS011;21192;40.182;44.516;2023-04-24T06:30:30;17.77;;;9.90;;
34988;SDS011;21192;40.182;44.516;2023-04-24T06:32:56;18.85;;;9.95;;
34988;SDS011;21192;40.182;44.516;2023-04-24T06:35:22;16.02;;;8.38;;
34988;SDS011;21192;40.182;44.516;2023-04-24T06:37:48;20.13;;;9.75;;
34988;SDS011;21192;40.182;44.516;2023-04-24T06:40:14;19.38;;;9.77;;
34988;SDS011;21192;40.182;44.516;2023-04-24T06:42:40;18.38;;;9.38;;
34988;SDS011;21192;40.182;44.516;2023-04-24T06:45:06;18.02;;;10.00;;
34988;SDS011;21192;40.182;44.516;2023-04-24T06:47:32;16.42;;;9.43;;
34988;SDS011;21192;40.182;44.516;2023-04-24T06:49:58;18.05;;;10.73;;
34988;SDS011;21192;40.182;44.516;2023-04-24T06:52:24;17.65;;;10.40;;
34988;SDS011;21192;40.182;44.516;2023-04-24T06:54:50;24.98;;;11.40;;
34988;SDS011;21192;40.182;44.516;2023-04-24T06:57:15;19.85;;;11.23;;
34988;SDS011;21192;40.182;44.516;2023-04-24T06:59:42;21.00;;;10.63;;
34988;SDS011;21192;40.182;44.516;2023-04-24T07:02:08;23.58;;;11.65;;
34988;SDS011;21192;40.182;44.516;2023-04-24T07:04:34;21.88;;;11.23;;
34988;SDS011;21192;40.182;44.516;2023-04-24T07:07:00;21.48;;;11.85;;
34988;SDS011;21192;40.182;44.516;2023-04-24T07:09:26;20.80;;;10.10;;
34988;SDS011;21192;40.182;44.516;2023-04-24T07:11:52;18.42;;;10.38;;
34988;SDS011;21192;40.182;44.516;2023-04-24T07:14:18;18.33;;;9.35;;
34988;SDS011;21192;40.182;44.516;2023-04-24T07:16:45;18.25;;;9.88;;
34988;SDS011;21192;40.182;44.516;2023-04-24T07:19:12;22.48;;;9.95;;
34988;SDS011;21192;40.182;44.516;2023-04-24T07:21:39;19.83;;;9.77;;
34988;SDS011;21192;40.182;44.516;2023-04-24T07:24:06;23.42;;;9.30;;
34988;SDS011;21192;40.182;44.516;2023-04-24T07:26:36;14.93;;;7.65;;
34988;SDS011;21192;40.182;44.516;2023-04-24T07:29:03;17.73;;;9.23;;
34988;SDS011;21192;40.182;44.516;2023-04-24T07:31:29;20.27;;;9.20;;
34988;SDS011;21192;40.182;44.516;2023-04-24T07:33:56;21.15;;;8.30;;
34988;SDS011;21192;40.182;44.516;2023-04-24T07:36:23;15.30;;;9.15;;
34988;SDS011;21192;40.182;44.516;2023-04-24T07:38:51;23.80;;;9.70;;
34988;SDS011;21192;40.182;44.516;2023-04-24T07:41:17;22.17;;;9.93;;
34988;SDS011;21192;40.182;44.516;2023-04-24T07:43:44;24.33;;;9.98;;
34988;SDS011;21192;40.182;44.516;2023-04-24T07:46:10;23.35;;;10.82;;
34988;SDS011;21192;40.182;44.516;2023-04-24T07:48:36;27.17;;;10.30;;
34988;SDS011;21192;40.182;44.516;2023-04-24T07:51:02;22.52;;;9.98;;
34988;SDS011;21192;40.182;44.516;2023-04-24T07:53:28;18.38;;;10.55;;
34988;SDS011;21192;40.182;44.516;2023-04-24T07:55:56;20.33;;;10.60;;
34988;SDS011;21192;40.182;44.516;2023-04-24T07:58:21;19.67;;;10.07;;
34988;SDS011;21192;40.182;44.516;2023-04-24T08:00:47;25.88;;;10.38;;
34988;SDS011;21192;40.182;44.516;2023-04-24T08:03:14;19.40;;;10.73;;
34988;SDS011;21192;40.182;44.516;2023-04-24T08:05:43;22.33;;;10.52;;
34988;SDS011;21192;40.182;44.516;2023-04-24T08:08:09;23.67;;;10.65;;
34988;SDS011;21192;40.182;44.516;2023-04-24T08:10:35;19.20;;;9.05;;
34988;SDS011;21192;40.182;44.516;2023-04-24T08:13:00;14.77;;;8.18;;
34988;SDS011;21192;40.182;44.516;2023-04-24T08:15:27;19.70;;;8.68;;
34988;SDS011;21192;40.182;44.516;2023-04-24T08:17:53;20.90;;;9.20;;
34988;SDS011;21192;40.182;44.516;2023-04-24T08:20:18;23.90;;;8.68;;
34988;SDS011;21192;40.182;44.516;2023-04-24T08:22:44;20.52;;;8.75;;
34988;SDS011;21192;40.182;44.516;2023-04-24T08:25:12;19.70;;;8.48;;
34988;SDS011;21192;40.182;44.516;2023-04-24T08:27:38;21.25;;;9.07;;
34988;SDS011;21192;40.182;44.516;2023-04-24T08:30:04;18.77;;;9.02;;
34988;SDS011;21192;40.182;44.516;2023-04-24T08:32:31;26.92;;;10.32;;
34988;SDS011;21192;40.182;44.516;2023-04-24T08:34:57;22.27;;;9.93;;
34988;SDS011;21192;40.182;44.516;2023-04-24T08:37:24;21.77;;;9.38;;
34988;SDS011;21192;40.182;44.516;2023-04-24T08:39:51;18.00;;;9.32;;
34988;SDS011;21192;40.182;44.516;2023-04-24T08:42:18;22.23;;;9.40;;
34988;SDS011;21192;40.182;44.516;2023-04-24T08:44:44;25.85;;;9.77;;
34988;SDS011;21192;40.182;44.516;2023-04-24T08:47:11;22.98;;;9.48;;
34988;SDS011;21192;40.182;44.516;2023-04-24T08:49:37;19.00;;;8.98;;
34988;SDS011;21192;40.182;44.516;2023-04-24T08:52:07;20.58;;;7.72;;
34988;SDS011;21192;40.182;44.516;2023-04-24T08:54:34;20.00;;;8.07;;
34988;SDS011;21192;40.182;44.516;2023-04-24T08:57:00;28.38;;;9.13;;
34988;SDS011;21192;40.182;44.516;2023-04-24T08:59:28;25.08;;;10.55;;
34988;SDS011;21192;40.182;44.516;2023-04-24T09:01:55;24.00;;;9.85;;
34988;SDS011;21192;40.182;44.516;2023-04-24T09:04:22;21.33;;;9.57;;
34988;SDS011;21192;40.182;44.516;2023-04-24T09:06:50;20.98;;;9.98;;
34988;SDS011;21192;40.182;44.516;2023-04-24T09:09:20;24.08;;;9.48;;
34988;SDS011;21192;40.182;44.516;2023-04-24T09:11:49;22.98;;;9.88;;
34988;SDS011;21192;40.182;44.516;2023-04-24T09:14:15;19.70;;;9.93;;
34988;SDS011;21192;40.182;44.516;2023-04-24T09:16:42;22.25;;;10.43;;
34988;SDS011;21192;40.182;44.516;2023-04-24T09:19:08;22.65;;;10.55;;
34988;SDS011;21192;40.182;44.516;2023-04-24T09:21:34;31.75;;;11.88;;
34988;SDS011;21192;40.182;44.516;2023-04-24T09:24:05;28.85;;;11.27;;
34988;SDS011;21192;40.182;44.516;2023-04-24T09:26:34;27.17;;;10.68;;
34988;SDS011;21192;40.182;44.516;2023-04-24T09:29:02;20.85;;;11.10;;
34988;SDS011;21192;40.182;44.516;2023-04-24T09:31:29;25.98;;;12.07;;
34988;SDS011;21192;40.182;44.516;2023-04-24T09:34:04;24.63;;;10.95;;
34988;SDS011;21192;40.182;44.516;2023-04-24T09:36:31;27.88;;;11.45;;
34988;SDS011;21192;40.182;44.516;2023-04-24T09:38:59;23.23;;;11.30;;
34988;SDS011;21192;40.182;44.516;2023-04-24T09:41:26;27.15;;;10.65;;
34988;SDS011;21192;40.182;44.516;2023-04-24T09:43:54;16.77;;;9.40;;
34988;SDS011;21192;40.182;44.516;2023-04-24T09:46:20;18.15;;;9.82;;
34988;SDS011;21192;40.182;44.516;2023-04-24T09:48:47;20.08;;;8.77;;
34988;SDS011;21192;40.182;44.516;2023-04-24T09:51:13;22.63;;;10.45;;
34988;SDS011;21192;40.182;44.516;2023-04-24T09:53:44;19.80;;;9.93;;
34988;SDS011;21192;40.182;44.516;2023-04-24T09:56:11;24.95;;;9.73;;
34988;SDS011;21192;40.182;44.516;2023-04-24T09:58:38;24.23;;;9.40;;
34988;SDS011;21192;40.182;44.516;2023-04-24T10:01:04;21.58;;;9.68;;
34988;SDS011;21192;40.182;44.516;2023-04-24T10:03:30;20.70;;;8.90;;
34988;SDS011;21192;40.182;44.516;2023-04-24T10:06:01;27.25;;;10.13;;
34988;SDS011;21192;40.182;44.516;2023-04-24T10:08:37;23.70;;;10.05;;
34988;SDS011;21192;40.182;44.516;2023-04-24T10:11:02;21.80;;;10.35;;
34988;SDS011;21192;40.182;44.516;2023-04-24T10:13:28;21.50;;;8.93;;
34988;SDS011;21192;40.182;44.516;2023-04-24T10:15:55;18.83;;;8.90;;
34988;SDS011;21192;40.182;44.516;2023-04-24T10:18:24;18.73;;;9.68;;
34988;SDS011;21192;40.182;44.516;2023-04-24T10:20:51;18.77;;;9.02;;
34988;SDS011;21192;40.182;44.516;2023-04-24T10:23:19;19.48;;;8.85;;
34988;SDS011;21192;40.182;44.516;2023-04-24T10:25:45;22.08;;;9.00;;
34988;SDS011;21192;40.182;44.516;2023-04-24T10:28:12;24.73;;;9.65;;
34988;SDS011;21192;40.182;44.516;2023-04-24T10:30:38;17.60;;;8.68;;
34988;SDS011;21192;40.182;44.516;2023-04-24T10:33:07;24.08;;;9.32;;
34988;SDS011;21192;40.182;44.516;2023-04-24T10:35:34;21.98;;;8.68;;
34988;SDS011;21192;40.182;44.516;2023-04-24T10:38:13;27.90;;;10.43;;
34988;SDS011;21192;40.182;44.516;2023-04-24T10:40:42;29.35;;;10.13;;
34988;SDS011;21192;40.182;44.516;2023-04-24T10:43:09;22.83;;;8.85;;
34988;SDS011;21192;40.182;44.516;2023-04-24T10:45:36;23.63;;;8.57;;
34988;SDS011;21192;40.182;44.516;2023-04-24T10:48:04;21.38;;;8.05;;
34988;SDS011;21192;40.182;44.516;2023-04-24T10:53:13;28.42;;;9.38;;
34988;SDS011;21192;40.182;44.516;2023-04-24T10:58:11;29.05;;;9.80;;
34988;SDS011;21192;40.182;44.516;2023-04-24T11:00:38;25.60;;;9.23;;
34988;SDS011;21192;40.182;44.516;2023-04-24T11:03:06;26.13;;;9.35;;
34988;SDS011;21192;40.182;44.516;2023-04-24T11:05:50;23.55;;;8.55;;
34988;SDS011;21192;40.182;44.516;2023-04-24T11:13:24;25.17;;;10.57;;
34988;SDS011;21192;40.182;44.516;2023-04-24T11:18:41;26.67;;;10.27;;
34988;SDS011;21192;40.182;44.516;2023-04-24T11:21:11;21.60;;;10.90;;
34988;SDS011;21192;40.182;44.516;2023-04-24T11:23:38;35.78;;;12.80;;
34988;SDS011;21192;40.182;44.516;2023-04-24T11:26:21;29.15;;;11.88;;
34988;SDS011;21192;40.182;44.516;2023-04-24T11:29:05;25.17;;;10.13;;
34988;SDS011;21192;40.182;44.516;2023-04-24T11:31:39;21.92;;;9.75;;
34988;SDS011;21192;40.182;44.516;2023-04-24T11:34:07;25.85;;;10.63;;
34988;SDS011;21192;40.182;44.516;2023-04-24T11:36:35;25.92;;;10.80;;
34988;SDS011;21192;40.182;44.516;2023-04-24T11:39:02;28.35;;;10.57;;
34988;SDS011;21192;40.182;44.516;2023-04-24T11:41:28;24.63;;;10.00;;
34988;SDS011;21192;40.182;44.516;2023-04-24T11:43:54;25.95;;;10.80;;
34988;SDS011;21192;40.182;44.516;2023-04-24T11:46:21;27.05;;;9.90;;
34988;SDS011;21192;40.182;44.516;2023-04-24T11:48:47;35.72;;;10.32;;
34988;SDS011;21192;40.182;44.516;2023-04-24T11:51:13;25.08;;;8.63;;
34988;SDS011;21192;40.182;44.516;2023-04-24T11:53:40;23.70;;;8.15;;
34988;SDS011;21192;40.182;44.516;2023-04-24T11:56:06;24.80;;;8.48;;
34988;SDS011;21192;40.182;44.516;2023-04-24T11:58:37;17.77;;;8.20;;
34988;SDS011;21192;40.182;44.516;2023-04-24T12:01:04;23.13;;;7.75;;
34988;SDS011;21192;40.182;44.516;2023-04-24T12:03:30;25.98;;;7.78;;
34988;SDS011;21192;40.182;44.516;2023-04-24T12:06:06;18.08;;;7.43;;
34988;SDS011;21192;40.182;44.516;2023-04-24T12:08:33;14.05;;;5.30;;
34988;SDS011;21192;40.182;44.516;2023-04-24T12:11:00;15.65;;;5.38;;
34988;SDS011;21192;40.182;44.516;2023-04-24T12:13:27;14.43;;;4.25;;
34988;SDS011;21192;40.182;44.516;2023-04-24T12:15:53;10.77;;;4.07;;
34988;SDS011;21192;40.182;44.516;2023-04-24T12:18:21;13.52;;;3.67;;
34988;SDS011;21192;40.182;44.516;2023-04-24T12:20:48;10.50;;;2.85;;
34988;SDS011;21192;40.182;44.516;2023-04-24T12:23:14;10.13;;;3.20;;
34988;SDS011;21192;40.182;44.516;2023-04-24T12:25:41;7.68;;;2.63;;
34988;SDS011;21192;40.182;44.516;2023-04-24T12:28:11;10.38;;;4.15;;
34988;SDS011;21192;40.182;44.516;2023-04-24T12:30:42;10.43;;;4.22;;
34988;SDS011;21192;40.182;44.516;2023-04-24T12:33:17;7.75;;;3.83;;
34988;SDS011;21192;40.182;44.516;2023-04-24T12:35:47;7.25;;;3.30;;
34988;SDS011;21192;40.182;44.516;2023-04-24T12:38:16;8.15;;;4.05;;
34988;SDS011;21192;40.182;44.516;2023-04-24T12:40:48;10.52;;;3.50;;
34988;SDS011;21192;40.182;44.516;2023-04-24T12:43:26;7.10;;;3.17;;
34988;SDS011;21192;40.182;44.516;2023-04-24T12:45:52;8.50;;;4.45;;
34988;SDS011;21192;40.182;44.516;2023-04-24T12:48:18;8.65;;;3.70;;
34988;SDS011;21192;40.182;44.516;2023-04-24T12:50:46;12.85;;;5.47;;
34988;SDS011;21192;40.182;44.516;2023-04-24T12:53:13;11.57;;;4.22;;
34988;SDS011;21192;40.182;44.516;2023-04-24T12:55:39;8.85;;;4.07;;
34988;SDS011;21192;40.182;44.516;2023-04-24T12:58:05;14.05;;;5.85;;
34988;SDS011;21192;40.182;44.516;2023-04-24T13:00:31;10.60;;;4.18;;
34988;SDS011;21192;40.182;44.516;2023-04-24T13:02:57;11.00;;;3.67;;
34988;SDS011;21192;40.182;44.516;2023-04-24T13:05:23;8.55;;;3.67;;
34988;SDS011;21192;40.182;44.516;2023-04-24T13:07:50;7.50;;;3.50;;
34988;SDS011;21192;40.182;44.516;2023-04-24T13:10:15;7.18;;;3.40;;
34988;SDS011;21192;40.182;44.516;2023-04-24T13:12:41;9.13;;;3.45;;
34988;SDS011;21192;40.182;44.516;2023-04-24T13:15:10;12.75;;;6.78;;
34988;SDS011;21192;40.182;44.516;2023-04-24T13:17:36;6.18;;;2.92;;
34988;SDS011;21192;40.182;44.516;2023-04-24T13:20:02;14.90;;;5.78;;
34988;SDS011;21192;40.182;44.516;2023-04-24T13:22:29;10.32;;;4.43;;
34988;SDS011;21192;40.182;44.516;2023-04-24T13:24:55;9.88;;;4.32;;
34988;SDS011;21192;40.182;44.516;2023-04-24T13:27:21;13.57;;;5.28;;
34988;SDS011;21192;40.182;44.516;2023-04-24T13:29:47;11.23;;;5.25;;
34988;SDS011;21192;40.182;44.516;2023-04-24T13:32:13;12.23;;;4.65;;
34988;SDS011;21192;40.182;44.516;2023-04-24T13:34:39;13.55;;;5.63;;
34988;SDS011;21192;40.182;44.516;2023-04-24T13:37:05;13.45;;;6.82;;
34988;SDS011;21192;40.182;44.516;2023-04-24T13:39:31;17.80;;;7.22;;
34988;SDS011;21192;40.182;44.516;2023-04-24T13:41:57;12.40;;;6.57;;
34988;SDS011;21192;40.182;44.516;2023-04-24T13:44:23;14.02;;;6.47;;
34988;SDS011;21192;40.182;44.516;2023-04-24T13:46:51;15.40;;;8.40;;
34988;SDS011;21192;40.182;44.516;2023-04-24T13:49:19;13.68;;;6.32;;
34988;SDS011;21192;40.182;44.516;2023-04-24T13:51:46;19.52;;;8.18;;
34988;SDS011;21192;40.182;44.516;2023-04-24T13:54:12;14.77;;;6.97;;
34988;SDS011;21192;40.182;44.516;2023-04-24T13:56:38;17.40;;;9.02;;
34988;SDS011;21192;40.182;44.516;2023-04-24T13:59:05;15.20;;;8.55;;
34988;SDS011;21192;40.182;44.516;2023-04-24T14:01:31;17.38;;;6.85;;
34988;SDS011;21192;40.182;44.516;2023-04-24T14:03:56;14.95;;;6.45;;
34988;SDS011;21192;40.182;44.516;2023-04-24T14:06:22;14.30;;;6.15;;
34988;SDS011;21192;40.182;44.516;2023-04-24T14:08:49;14.55;;;6.10;;
34988;SDS011;21192;40.182;44.516;2023-04-24T14:11:15;13.30;;;6.65;;
34988;SDS011;21192;40.182;44.516;2023-04-24T14:13:42;15.35;;;7.18;;
34988;SDS011;21192;40.182;44.516;2023-04-24T14:16:08;11.85;;;5.60;;
34988;SDS011;21192;40.182;44.516;2023-04-24T14:18:35;12.85;;;6.00;;
34988;SDS011;21192;40.182;44.516;2023-04-24T14:21:02;31.10;;;15.50;;
34988;SDS011;21192;40.182;44.516;2023-04-24T14:23:28;35.13;;;11.02;;
34988;SDS011;21192;40.182;44.516;2023-04-24T14:25:54;17.52;;;8.73;;
34988;SDS011;21192;40.182;44.516;2023-04-24T14:28:20;21.45;;;7.50;;